createdAt,value
2023-12-28T00:01:23.371Z,2.90
2023-12-28T00:04:11.588Z,3.47
2023-12-28T00:06:57.849Z,3.00
2023-12-28T00:09:43.939Z,4.40
2023-12-28T00:12:30.181Z,4.43
2023-12-28T00:15:16.398Z,4.68
2023-12-28T00:18:02.811Z,2.65
2023-12-28T00:20:50.997Z,4.00
2023-12-28T00:23:36.847Z,4.22
2023-12-28T00:26:22.804Z,3.13
2023-12-28T00:29:20.533Z,2.40
2023-12-28T00:32:07.186Z,3.95
2023-12-28T00:34:53.494Z,6.03
2023-12-28T00:37:41.167Z,4.75
2023-12-28T00:40:27.594Z,5.68
2023-12-28T00:43:13.148Z,3.28
2023-12-28T00:45:59.038Z,3.40
2023-12-28T00:48:45.234Z,4.00
2023-12-28T00:51:31.286Z,3.97
2023-12-28T00:54:19.099Z,3.47
2023-12-28T00:57:05.371Z,3.05
2023-12-28T00:59:50.954Z,4.10
2023-12-28T01:02:36.731Z,4.68
2023-12-28T01:05:22.663Z,3.40
2023-12-28T01:08:08.618Z,3.47
2023-12-28T01:10:56.747Z,4.05
2023-12-28T01:13:42.918Z,6.60
2023-12-28T01:16:30.277Z,4.55
2023-12-28T01:19:16.427Z,3.50
2023-12-28T01:22:02.147Z,3.05
2023-12-28T01:24:50.686Z,2.67
2023-12-28T01:27:38.420Z,4.68
2023-12-28T01:30:24.459Z,4.45
2023-12-28T01:33:11.211Z,3.70
2023-12-28T01:35:56.948Z,2.95
2023-12-28T01:38:42.483Z,4.07
2023-12-28T01:41:28.444Z,2.92
2023-12-28T01:44:15.581Z,4.95
2023-12-28T01:47:01.879Z,3.33
2023-12-28T01:49:48.367Z,4.85
2023-12-28T01:52:34.596Z,6.03
2023-12-28T01:55:22.234Z,2.55
2023-12-28T01:58:07.748Z,3.80
2023-12-28T02:00:58.091Z,3.63
2023-12-28T02:03:43.760Z,7.03
2023-12-28T02:06:30.513Z,2.83
2023-12-28T02:09:16.369Z,4.18
2023-12-28T02:12:02.027Z,3.25
2023-12-28T02:14:48.244Z,4.72
2023-12-28T02:17:39.526Z,4.63
2023-12-28T02:20:27.872Z,4.18
2023-12-28T02:23:13.396Z,6.22
2023-12-28T02:26:00.737Z,6.82
2023-12-28T02:28:46.666Z,3.72
2023-12-28T02:31:37.588Z,5.60
2023-12-28T02:34:31.631Z,3.00
2023-12-28T02:37:19.152Z,5.07
2023-12-28T02:40:06.614Z,4.82
2023-12-28T02:42:54.101Z,4.28
2023-12-28T02:45:41.365Z,6.35
2023-12-28T02:48:27.619Z,6.00
2023-12-28T02:51:13.893Z,3.53
2023-12-28T02:54:00.047Z,2.67
2023-12-28T02:56:45.616Z,7.47
2023-12-28T02:59:32.548Z,4.93
2023-12-28T03:02:18.305Z,4.38
2023-12-28T03:05:07.315Z,7.18
2023-12-28T03:07:57.238Z,7.65
2023-12-28T03:10:43.986Z,3.72
2023-12-28T03:13:29.999Z,4.30
2023-12-28T03:16:17.036Z,6.95
2023-12-28T03:19:02.951Z,8.93
2023-12-28T03:21:48.842Z,7.32
2023-12-28T03:24:34.962Z,6.00
2023-12-28T03:27:20.745Z,5.72
2023-12-28T03:30:07.956Z,3.63
2023-12-28T03:32:55.566Z,5.60
2023-12-28T03:35:41.555Z,4.40
2023-12-28T03:38:29.095Z,9.73
2023-12-28T03:41:18.469Z,5.35
2023-12-28T03:44:04.857Z,6.50
2023-12-28T03:46:51.184Z,5.63
2023-12-28T03:49:38.890Z,5.25
2023-12-28T03:52:26.897Z,10.75
2023-12-28T03:55:12.562Z,4.60
2023-12-28T03:57:58.358Z,6.50
2023-12-28T04:00:44.474Z,7.53
2023-12-28T04:03:30.473Z,6.72
2023-12-28T04:06:18.063Z,7.85
2023-12-28T04:09:03.940Z,6.32
2023-12-28T04:11:49.934Z,9.23
2023-12-28T04:14:36.532Z,13.50
2023-12-28T04:17:22.144Z,7.25
2023-12-28T04:20:08.889Z,8.75
2023-12-28T04:22:56.076Z,6.20
2023-12-28T04:25:41.753Z,5.85
2023-12-28T04:28:27.429Z,5.28
2023-12-28T04:31:13.261Z,8.23
2023-12-28T04:33:59.247Z,9.98
2023-12-28T04:36:46.307Z,5.93
2023-12-28T04:39:37.310Z,9.20
2023-12-28T04:42:23.104Z,7.28
2023-12-28T04:45:09.595Z,8.88
2023-12-28T04:47:55.746Z,7.93
2023-12-28T04:50:41.809Z,8.07
2023-12-28T04:53:27.278Z,6.95
2023-12-28T04:56:18.863Z,13.75
2023-12-28T04:59:04.452Z,8.57
2023-12-28T05:01:49.964Z,11.23
2023-12-28T05:04:40.205Z,11.25
2023-12-28T05:07:26.077Z,6.28
2023-12-28T05:10:11.636Z,10.38
2023-12-28T05:13:01.897Z,7.05
2023-12-28T05:15:48.325Z,15.30
2023-12-28T05:18:34.003Z,12.18
2023-12-28T05:21:19.851Z,8.15
2023-12-28T05:24:06.680Z,9.85
2023-12-28T05:26:52.037Z,14.50
2023-12-28T05:29:39.213Z,10.73
2023-12-28T05:32:25.177Z,8.93
2023-12-28T05:35:10.985Z,8.95
2023-12-28T05:37:56.955Z,10.98
2023-12-28T05:40:44.282Z,10.40
2023-12-28T05:43:30.250Z,10.82
2023-12-28T05:46:17.697Z,10.98
2023-12-28T05:49:03.314Z,10.10
2023-12-28T05:51:49.463Z,14.60
2023-12-28T05:54:36.087Z,8.57
2023-12-28T05:57:22.039Z,12.60
2023-12-28T06:00:08.516Z,8.70
2023-12-28T06:02:59.796Z,11.40
2023-12-28T06:05:45.248Z,9.38
2023-12-28T06:08:30.758Z,8.85
2023-12-28T06:11:16.804Z,10.80
2023-12-28T06:14:02.808Z,11.70
2023-12-28T06:16:48.305Z,14.20
2023-12-28T06:19:35.964Z,10.77
2023-12-28T06:22:21.515Z,10.30
2023-12-28T06:25:07.596Z,8.38
2023-12-28T06:27:53.375Z,15.52
2023-12-28T06:30:40.906Z,11.43
2023-12-28T06:33:26.584Z,16.15
2023-12-28T06:36:14.265Z,17.83
2023-12-28T06:39:00.555Z,13.23
2023-12-28T06:41:48.931Z,14.65
2023-12-28T06:44:34.918Z,8.23
2023-12-28T06:47:20.757Z,11.48
2023-12-28T06:50:07.437Z,10.43
2023-12-28T06:52:54.700Z,12.75
2023-12-28T06:55:40.403Z,13.48
2023-12-28T06:58:25.875Z,11.93
2023-12-28T07:01:13.062Z,13.50
2023-12-28T07:04:00.717Z,17.60
2023-12-28T07:06:46.344Z,10.30
2023-12-28T07:09:33.401Z,18.58
2023-12-28T07:12:21.560Z,11.45
2023-12-28T07:15:08.401Z,10.00
2023-12-28T07:17:54.018Z,13.07
2023-12-28T07:20:39.886Z,15.00
2023-12-28T07:23:25.667Z,14.95
2023-12-28T07:26:12.773Z,11.90
2023-12-28T07:28:58.472Z,10.52
2023-12-28T07:31:43.956Z,17.02
2023-12-28T07:34:29.886Z,18.17
2023-12-28T07:37:15.527Z,14.68
2023-12-28T07:40:01.420Z,13.85
2023-12-28T07:42:48.983Z,12.35
2023-12-28T07:45:34.815Z,12.13
2023-12-28T07:48:21.117Z,15.00
2023-12-28T07:51:07.532Z,18.45
2023-12-28T07:53:53.528Z,16.33
2023-12-28T07:56:39.843Z,15.25
2023-12-28T07:59:26.616Z,15.18
2023-12-28T08:02:12.083Z,17.58
2023-12-28T08:04:57.745Z,10.95
2023-12-28T08:07:43.701Z,12.98
2023-12-28T08:10:29.164Z,13.93
2023-12-28T08:13:15.046Z,13.25
2023-12-28T08:16:02.384Z,12.88
2023-12-28T08:18:48.646Z,11.15
2023-12-28T08:21:34.818Z,15.43
2023-12-28T08:24:20.682Z,11.40
2023-12-28T08:27:06.700Z,16.88
2023-12-28T08:29:52.442Z,14.57
2023-12-28T08:32:39.807Z,13.38
2023-12-28T08:35:25.927Z,14.23
2023-12-28T08:38:14.268Z,16.33
2023-12-28T08:41:00.096Z,10.48
2023-12-28T08:43:45.795Z,15.75
2023-12-28T08:46:31.327Z,10.18
2023-12-28T08:49:18.428Z,22.40
2023-12-28T08:52:04.784Z,13.52
2023-12-28T08:54:50.798Z,13.20
2023-12-28T08:57:42.497Z,14.50
2023-12-28T09:00:29.530Z,10.32
2023-12-28T09:03:15.796Z,12.02
2023-12-28T09:06:03.168Z,16.75
2023-12-28T09:08:53.014Z,13.88
2023-12-28T09:11:42.248Z,15.65
2023-12-28T09:14:27.905Z,13.02
2023-12-28T09:17:13.463Z,10.88
2023-12-28T09:19:59.355Z,14.52
2023-12-28T09:22:47.215Z,12.95
2023-12-28T09:25:34.083Z,7.75
2023-12-28T09:28:24.336Z,20.90
2023-12-28T09:31:10.419Z,18.02
2023-12-28T09:33:56.521Z,16.90
2023-12-28T09:36:42.577Z,16.40
2023-12-28T09:39:30.093Z,14.98
2023-12-28T09:42:20.640Z,18.65
2023-12-28T09:45:07.512Z,14.70
2023-12-28T09:47:53.977Z,12.98
2023-12-28T09:50:39.870Z,12.00
2023-12-28T09:53:27.038Z,12.80
2023-12-28T09:56:17.740Z,17.02
2023-12-28T09:59:05.319Z,18.67
2023-12-28T10:01:51.386Z,20.05
2023-12-28T10:04:38.193Z,13.73
2023-12-28T10:07:25.073Z,12.82
2023-12-28T10:10:11.359Z,16.10
2023-12-28T10:13:01.510Z,15.32
2023-12-28T10:15:48.063Z,17.27
2023-12-28T10:18:34.513Z,13.98
2023-12-28T10:21:20.448Z,11.57
2023-12-28T10:24:06.712Z,14.02
2023-12-28T10:26:54.403Z,14.60
2023-12-28T10:29:41.399Z,14.55
2023-12-28T10:32:28.329Z,17.27
2023-12-28T10:35:15.271Z,16.90
2023-12-28T10:38:04.720Z,13.30
2023-12-28T10:40:51.094Z,12.30
2023-12-28T10:43:46.783Z,14.77
2023-12-28T10:46:37.811Z,12.07
2023-12-28T10:49:27.737Z,15.38
2023-12-28T10:52:17.197Z,19.25
2023-12-28T10:55:21.014Z,12.50
2023-12-28T10:58:15.146Z,13.32
2023-12-28T11:01:06.417Z,20.33
2023-12-28T11:04:05.301Z,17.80
2023-12-28T11:06:52.473Z,17.83
2023-12-28T11:09:39.325Z,14.98
2023-12-28T11:12:26.661Z,17.52
2023-12-28T11:15:13.270Z,15.75
2023-12-28T11:18:00.721Z,17.10
2023-12-28T11:20:50.112Z,15.35
2023-12-28T11:23:36.713Z,13.23
2023-12-28T11:26:23.830Z,10.00
2023-12-28T11:29:09.574Z,20.20
2023-12-28T11:31:55.993Z,11.82
2023-12-28T11:34:41.908Z,13.68
2023-12-28T11:37:32.252Z,13.48
2023-12-28T11:40:21.118Z,13.45
2023-12-28T11:43:16.146Z,15.57
2023-12-28T11:46:01.951Z,14.02
2023-12-28T11:48:47.762Z,16.70
2023-12-28T11:51:34.541Z,19.02
2023-12-28T11:54:21.803Z,16.90
2023-12-28T11:57:07.692Z,12.43
2023-12-28T11:59:56.336Z,13.70
2023-12-28T12:02:45.800Z,10.98
2023-12-28T12:05:31.845Z,10.70
2023-12-28T12:08:17.560Z,21.65
2023-12-28T12:11:07.343Z,18.77
2023-12-28T12:13:54.392Z,16.15
2023-12-28T12:16:40.317Z,20.10
2023-12-28T12:19:29.105Z,19.58
2023-12-28T12:22:15.264Z,16.73
2023-12-28T12:25:05.177Z,16.33
2023-12-28T12:27:52.560Z,14.73
2023-12-28T12:30:38.739Z,12.57
2023-12-28T12:33:27.162Z,14.82
2023-12-28T12:36:13.368Z,12.93
2023-12-28T12:38:59.179Z,17.05
2023-12-28T12:41:47.276Z,20.67
2023-12-28T12:44:34.353Z,17.70
2023-12-28T12:47:19.814Z,13.55
2023-12-28T12:50:06.187Z,16.63
2023-12-28T12:52:52.022Z,14.43
2023-12-28T12:55:40.491Z,17.92
2023-12-28T12:58:26.648Z,13.57
2023-12-28T13:01:13.850Z,13.00
2023-12-28T13:03:59.943Z,17.02
2023-12-28T13:06:46.060Z,21.67
2023-12-28T13:09:31.975Z,13.90
2023-12-28T13:12:18.547Z,15.02
2023-12-28T13:15:07.309Z,15.95
2023-12-28T13:17:54.373Z,18.67
2023-12-28T13:20:40.529Z,12.20
2023-12-28T13:23:26.696Z,15.35
2023-12-28T13:26:12.240Z,14.63
2023-12-28T13:28:57.913Z,13.77
2023-12-28T13:31:45.930Z,11.90
2023-12-28T13:34:32.996Z,17.00
2023-12-28T13:37:19.483Z,14.25
2023-12-28T13:40:08.098Z,17.80
2023-12-28T13:42:54.033Z,14.45
2023-12-28T13:45:40.190Z,20.05
2023-12-28T13:48:26.247Z,15.48
2023-12-28T13:51:13.578Z,10.88
2023-12-28T13:53:59.171Z,13.10
2023-12-28T13:56:45.999Z,16.67
2023-12-28T13:59:31.454Z,15.52
2023-12-28T14:02:17.338Z,13.90
2023-12-28T14:05:03.498Z,14.00
2023-12-28T14:07:51.083Z,14.07
2023-12-28T14:10:39.348Z,14.50
2023-12-28T14:13:25.908Z,20.63
2023-12-28T14:16:11.484Z,13.52
2023-12-28T14:18:57.894Z,17.23
2023-12-28T14:21:44.270Z,10.25
2023-12-28T14:24:32.041Z,14.02
2023-12-28T14:27:18.210Z,16.58
2023-12-28T14:30:05.146Z,14.25
2023-12-28T14:32:51.620Z,11.45
2023-12-28T14:35:42.209Z,14.73
2023-12-28T14:38:28.270Z,15.98
2023-12-28T14:41:15.481Z,14.05
2023-12-28T14:44:01.366Z,27.17
2023-12-28T14:46:47.355Z,12.40
2023-12-28T14:49:33.252Z,15.23
2023-12-28T14:52:19.305Z,13.10
2023-12-28T14:55:06.159Z,14.80
2023-12-28T14:57:53.286Z,15.73
2023-12-28T15:00:39.544Z,16.85
2023-12-28T15:03:25.707Z,13.57
2023-12-28T15:06:11.851Z,19.67
2023-12-28T15:08:57.377Z,15.40
2023-12-28T15:11:48.491Z,19.00
2023-12-28T15:14:37.438Z,20.15
2023-12-28T15:17:23.578Z,14.77
2023-12-28T15:20:10.941Z,22.23
2023-12-28T15:22:57.114Z,16.40
2023-12-28T15:25:43.717Z,20.45
2023-12-28T15:28:31.559Z,16.33
2023-12-28T15:31:21.206Z,19.58
2023-12-28T15:34:07.425Z,17.50
2023-12-28T15:36:53.466Z,13.05
2023-12-28T15:39:38.917Z,15.13
2023-12-28T15:42:25.006Z,13.27
2023-12-28T15:45:11.618Z,15.05
2023-12-28T15:47:59.081Z,16.23
2023-12-28T15:50:45.158Z,12.10
2023-12-28T15:53:30.638Z,15.02
2023-12-28T15:56:19.403Z,14.63
2023-12-28T15:59:05.837Z,12.82
2023-12-28T16:01:51.846Z,13.80
2023-12-28T16:04:38.818Z,15.45
2023-12-28T16:07:24.454Z,18.20
2023-12-28T16:10:10.560Z,15.63
2023-12-28T16:12:57.073Z,17.27
2023-12-28T16:15:44.133Z,13.52
2023-12-28T16:18:30.660Z,16.98
2023-12-28T16:21:18.805Z,17.63
2023-12-28T16:24:04.606Z,18.48
2023-12-28T16:26:50.158Z,19.48
2023-12-28T16:29:36.226Z,11.55
2023-12-28T16:32:21.963Z,11.50
2023-12-28T16:35:08.576Z,18.25
2023-12-28T16:37:55.562Z,12.88
2023-12-28T16:40:41.064Z,17.38
2023-12-28T16:43:31.552Z,12.82
2023-12-28T16:46:17.890Z,21.80
2023-12-28T16:49:03.978Z,15.43
2023-12-28T16:51:49.869Z,16.10
2023-12-28T16:54:37.136Z,17.23
2023-12-28T16:57:22.899Z,11.60
2023-12-28T17:00:12.080Z,12.43
2023-12-28T17:02:58.569Z,9.68
2023-12-28T17:05:44.553Z,13.68
2023-12-28T17:08:30.410Z,9.05
2023-12-28T17:11:18.562Z,13.95
2023-12-28T17:14:05.108Z,12.77
2023-12-28T17:16:51.835Z,12.32
2023-12-28T17:19:38.419Z,9.98
2023-12-28T17:22:28.292Z,12.85
2023-12-28T17:25:25.940Z,17.83
2023-12-28T17:28:19.570Z,15.15
2023-12-28T17:31:09.453Z,8.25
2023-12-28T17:33:56.054Z,14.70
2023-12-28T17:36:42.319Z,12.20
2023-12-28T17:39:29.120Z,11.55
2023-12-28T17:42:16.894Z,12.32
2023-12-28T17:45:07.054Z,10.65
2023-12-28T17:47:58.315Z,11.55
2023-12-28T17:50:44.920Z,10.63
2023-12-28T17:53:31.239Z,15.38
2023-12-28T17:56:18.366Z,10.75
2023-12-28T17:59:03.844Z,13.00
2023-12-28T18:01:51.108Z,14.48
2023-12-28T18:04:37.470Z,13.32
2023-12-28T18:07:23.119Z,10.38
2023-12-28T18:10:10.157Z,11.95
2023-12-28T18:12:56.308Z,22.42
2023-12-28T18:15:42.334Z,14.43
2023-12-28T18:18:29.874Z,13.18
2023-12-28T18:21:15.452Z,12.23
2023-12-28T18:24:01.261Z,11.30
2023-12-28T18:26:46.924Z,17.15
2023-12-28T18:29:32.765Z,14.18
2023-12-28T18:32:18.665Z,11.20
2023-12-28T18:35:06.878Z,14.80
2023-12-28T18:37:52.330Z,16.00
2023-12-28T18:40:38.177Z,10.85
2023-12-28T18:43:23.910Z,7.40
2023-12-28T18:46:09.488Z,8.35
2023-12-28T18:48:55.936Z,12.95
2023-12-28T18:51:42.991Z,11.35
2023-12-28T18:54:28.748Z,15.45
2023-12-28T18:57:14.775Z,11.10
2023-12-28T19:00:00.388Z,17.10
2023-12-28T19:02:45.961Z,10.70
2023-12-28T19:05:32.046Z,11.18
2023-12-28T19:08:19.966Z,12.38
2023-12-28T19:11:11.215Z,14.77
2023-12-28T19:16:42.674Z,10.85
2023-12-28T19:19:34.083Z,11.35
2023-12-28T19:22:19.923Z,15.45
2023-12-28T19:25:07.761Z,16.40
2023-12-28T19:27:53.479Z,11.35
2023-12-28T19:30:39.528Z,11.20
2023-12-28T19:33:26.081Z,8.85
2023-12-28T19:36:12.220Z,12.43
2023-12-28T19:38:58.282Z,13.13
2023-12-28T19:41:45.366Z,11.23
2023-12-28T19:44:31.149Z,14.32
2023-12-28T19:47:16.628Z,12.27
2023-12-28T19:50:02.648Z,8.40
2023-12-28T19:52:48.559Z,13.95
2023-12-28T19:55:34.196Z,14.70
2023-12-28T19:58:21.076Z,10.77
2023-12-28T20:01:07.620Z,15.55
2023-12-28T20:03:53.667Z,9.68
2023-12-28T20:06:43.318Z,9.15
2023-12-28T20:09:28.823Z,11.88
2023-12-28T20:12:14.576Z,10.27
2023-12-28T20:15:01.948Z,9.18
2023-12-28T20:17:48.118Z,13.05
2023-12-28T20:20:34.025Z,14.35
2023-12-28T20:23:20.013Z,13.70
2023-12-28T20:26:05.781Z,13.38
2023-12-28T20:28:51.977Z,15.27
2023-12-28T20:31:41.026Z,12.05
2023-12-28T20:34:27.034Z,12.13
2023-12-28T20:37:12.923Z,10.57
2023-12-28T20:39:59.114Z,10.32
2023-12-28T20:42:45.404Z,10.50
2023-12-28T20:45:31.182Z,8.52
2023-12-28T20:48:18.582Z,10.60
2023-12-28T20:51:05.451Z,13.05
2023-12-28T20:53:51.398Z,8.98
2023-12-28T20:56:37.838Z,11.43
2023-12-28T20:59:23.656Z,7.82
2023-12-28T21:02:09.074Z,12.95
2023-12-28T21:04:56.314Z,11.45
2023-12-28T21:07:43.517Z,15.95
2023-12-28T21:10:29.842Z,8.43
2023-12-28T21:13:21.560Z,10.43
2023-12-28T21:18:53.358Z,7.40
2023-12-28T21:21:40.245Z,10.93
2023-12-28T21:24:28.992Z,8.30
2023-12-28T21:27:15.262Z,17.23
2023-12-28T21:30:01.067Z,11.48
2023-12-28T21:32:46.924Z,16.45
2023-12-28T21:35:32.990Z,12.30
2023-12-28T21:38:20.461Z,12.30
2023-12-28T21:41:06.553Z,12.85
2023-12-28T21:43:52.836Z,9.07
2023-12-28T21:46:40.118Z,11.48
2023-12-28T21:49:25.987Z,10.63
2023-12-28T21:52:15.874Z,12.07
2023-12-28T21:55:03.423Z,13.63
2023-12-28T21:57:49.453Z,12.02
2023-12-28T22:00:35.186Z,7.38
2023-12-28T22:03:21.212Z,10.43
2023-12-28T22:06:07.987Z,15.35
2023-12-28T22:08:56.292Z,7.47
2023-12-28T22:11:43.334Z,7.25
2023-12-28T22:14:29.217Z,8.68
2023-12-28T22:17:15.010Z,12.23
2023-12-28T22:20:01.075Z,10.93
2023-12-28T22:22:47.271Z,10.25
2023-12-28T22:25:32.824Z,12.23
2023-12-28T22:28:19.980Z,13.63
2023-12-28T22:31:05.988Z,10.73
2023-12-28T22:33:52.265Z,7.03
2023-12-28T22:36:38.424Z,9.25
2023-12-28T22:39:24.372Z,12.18
2023-12-28T22:42:12.424Z,11.02
2023-12-28T22:44:59.546Z,10.68
2023-12-28T22:47:45.483Z,13.05
2023-12-28T22:50:33.514Z,10.13
2023-12-28T22:53:19.537Z,6.30
2023-12-28T22:56:06.216Z,9.77
2023-12-28T22:58:52.000Z,9.82
2023-12-28T23:01:41.745Z,8.63
2023-12-28T23:04:45.928Z,11.05
2023-12-28T23:07:35.756Z,9.80
2023-12-28T23:10:21.756Z,7.20
2023-12-28T23:13:07.361Z,8.65
2023-12-28T23:15:53.916Z,13.00
2023-12-28T23:18:41.113Z,10.55
2023-12-28T23:21:26.855Z,9.35
2023-12-28T23:24:12.619Z,10.10
2023-12-28T23:26:57.910Z,6.85
2023-12-28T23:29:43.896Z,10.80
2023-12-28T23:32:29.798Z,11.40
2023-12-28T23:35:17.707Z,8.25
2023-12-28T23:38:03.818Z,7.55
2023-12-28T23:40:49.745Z,8.98
2023-12-28T23:43:35.787Z,10.30
2023-12-28T23:46:22.089Z,8.70
2023-12-28T23:49:08.046Z,14.98
2023-12-28T23:51:55.582Z,6.38
2023-12-28T23:54:41.638Z,8.40
2023-12-28T23:57:27.082Z,12.23
